createdAt,value
2018-12-21T00:01:10.695Z,98.90
2018-12-21T00:03:39.181Z,99.50
2018-12-21T00:06:07.590Z,99.20
2018-12-21T00:08:36.009Z,99.20
2018-12-21T00:11:04.451Z,99.20
2018-12-21T00:13:32.864Z,99.30
2018-12-21T00:16:01.343Z,99.20
2018-12-21T00:18:29.756Z,99.10
2018-12-21T00:20:58.249Z,98.90
2018-12-21T00:23:26.750Z,99.10
2018-12-21T00:25:55.168Z,99.10
2018-12-21T00:28:23.594Z,98.90
2018-12-21T00:30:57.322Z,99.00
2018-12-21T00:33:31.132Z,99.00
2018-12-21T00:36:04.938Z,99.00
2018-12-21T00:38:38.778Z,98.90
2018-12-21T00:41:12.431Z,99.20
2018-12-21T00:43:46.392Z,99.10
2018-12-21T00:46:21.053Z,99.20
2018-12-21T00:48:49.466Z,99.20
2018-12-21T00:51:18.128Z,99.10
2018-12-21T00:53:46.564Z,99.10
2018-12-21T00:56:15.083Z,99.30
2018-12-21T00:58:43.674Z,99.30
2018-12-21T01:01:12.086Z,99.50
2018-12-21T01:03:40.504Z,99.70
2018-12-21T01:06:09.048Z,99.90
2018-12-21T01:08:37.558Z,99.70
2018-12-21T01:11:05.984Z,99.80
2018-12-21T01:13:34.378Z,99.70
2018-12-21T01:16:02.812Z,99.90
2018-12-21T01:18:31.220Z,99.60
2018-12-21T01:20:59.660Z,99.90
2018-12-21T01:23:28.051Z,99.90
2018-12-21T01:25:56.490Z,99.90
2018-12-21T01:28:24.876Z,99.90
2018-12-21T01:30:53.288Z,99.90
2018-12-21T01:33:21.772Z,99.90
2018-12-21T01:35:50.310Z,99.90
2018-12-21T01:38:18.720Z,99.90
2018-12-21T01:40:47.237Z,99.90
2018-12-21T01:43:15.635Z,99.90
2018-12-21T01:45:44.009Z,99.90
2018-12-21T01:48:12.408Z,99.60
2018-12-21T01:50:40.820Z,99.40
2018-12-21T01:53:09.269Z,99.90
2018-12-21T01:55:37.660Z,99.80
2018-12-21T01:58:06.072Z,99.90
2018-12-21T02:00:34.548Z,99.50
2018-12-21T02:03:03.059Z,99.30
2018-12-21T02:05:31.479Z,99.40
2018-12-21T02:08:00.022Z,99.50
2018-12-21T02:10:28.440Z,99.50
2018-12-21T02:12:56.865Z,99.40
2018-12-21T02:15:25.265Z,99.70
2018-12-21T02:17:54.021Z,99.20
2018-12-21T02:20:22.401Z,99.30
2018-12-21T02:22:50.815Z,99.30
2018-12-21T02:25:19.241Z,99.20
2018-12-21T02:27:47.637Z,98.20
2018-12-21T02:30:16.036Z,98.40
2018-12-21T02:32:44.449Z,98.60
2018-12-21T02:35:12.882Z,98.00
2018-12-21T02:37:41.278Z,98.20
2018-12-21T02:40:09.829Z,98.50
2018-12-21T02:42:38.214Z,97.90
2018-12-21T02:45:07.690Z,97.20
2018-12-21T02:47:36.094Z,96.80
2018-12-21T02:50:04.900Z,96.10
2018-12-21T02:52:33.297Z,96.30
2018-12-21T02:55:01.686Z,97.00
2018-12-21T02:57:30.090Z,96.60
2018-12-21T02:59:58.502Z,97.00
2018-12-21T03:02:27.038Z,97.30
2018-12-21T03:04:55.535Z,97.10
2018-12-21T03:07:23.939Z,97.00
2018-12-21T03:09:52.354Z,97.10
2018-12-21T03:12:20.838Z,97.20
2018-12-21T03:14:49.284Z,97.40
2018-12-21T03:17:17.691Z,97.50
2018-12-21T03:19:46.104Z,97.80
2018-12-21T03:22:15.252Z,97.80
2018-12-21T03:24:43.821Z,97.90
2018-12-21T03:27:12.264Z,97.80
2018-12-21T03:29:40.759Z,98.00
2018-12-21T03:32:09.167Z,97.90
2018-12-21T03:34:37.582Z,97.90
2018-12-21T03:37:05.999Z,97.70
2018-12-21T03:39:34.372Z,97.60
2018-12-21T03:42:02.845Z,97.50
2018-12-21T03:44:31.237Z,97.50
2018-12-21T03:46:59.632Z,97.50
2018-12-21T03:49:28.054Z,97.40
2018-12-21T03:51:56.468Z,97.40
2018-12-21T03:54:24.853Z,97.40
2018-12-21T03:56:53.259Z,97.20
2018-12-21T03:59:21.667Z,97.50
2018-12-21T04:01:50.090Z,97.80
2018-12-21T04:04:18.570Z,97.50
2018-12-21T04:06:47.037Z,97.50
2018-12-21T04:09:16.183Z,96.70
2018-12-21T04:11:44.577Z,95.80
2018-12-21T04:14:13.003Z,95.10
2018-12-21T04:16:41.473Z,94.90
2018-12-21T04:19:10.855Z,94.90
2018-12-21T04:21:39.355Z,95.40
2018-12-21T04:24:07.985Z,94.80
2018-12-21T04:26:36.421Z,94.50
2018-12-21T04:29:04.833Z,94.30
2018-12-21T04:31:33.224Z,93.80
2018-12-21T04:34:01.627Z,93.70
2018-12-21T04:36:30.031Z,93.90
2018-12-21T04:38:58.709Z,93.50
2018-12-21T04:41:27.133Z,93.30
2018-12-21T04:43:55.540Z,93.60
2018-12-21T04:46:23.991Z,93.70
2018-12-21T04:48:52.481Z,94.00
2018-12-21T04:51:21.223Z,94.00
2018-12-21T04:53:49.625Z,94.10
2018-12-21T04:56:18.048Z,94.40
2018-12-21T04:58:46.638Z,94.50
2018-12-21T05:01:15.053Z,94.50
2018-12-21T05:03:43.471Z,94.60
2018-12-21T05:06:12.083Z,94.80
2018-12-21T05:08:40.543Z,94.90
2018-12-21T05:11:09.061Z,94.60
2018-12-21T05:13:37.604Z,94.60
2018-12-21T05:16:06.045Z,94.00
2018-12-21T05:18:34.467Z,93.70
2018-12-21T05:21:02.869Z,93.70
2018-12-21T05:23:31.292Z,93.60
2018-12-21T05:25:59.843Z,94.00
2018-12-21T05:28:28.359Z,93.60
2018-12-21T05:30:56.767Z,93.60
2018-12-21T05:33:25.188Z,93.60
2018-12-21T05:35:53.622Z,93.50
2018-12-21T05:38:22.006Z,93.60
2018-12-21T05:40:50.481Z,93.70
2018-12-21T05:43:18.868Z,93.70
2018-12-21T05:45:47.350Z,93.70
2018-12-21T05:48:15.777Z,93.60
2018-12-21T05:50:44.193Z,93.30
2018-12-21T05:53:12.612Z,93.60
2018-12-21T05:55:41.061Z,93.70
2018-12-21T05:58:09.440Z,93.50
2018-12-21T06:00:37.900Z,93.70
2018-12-21T06:03:06.301Z,93.80
2018-12-21T06:05:35.062Z,94.10
2018-12-21T06:08:03.468Z,94.10
2018-12-21T06:10:31.936Z,94.00
2018-12-21T06:13:00.352Z,94.00
2018-12-21T06:15:28.778Z,94.20
2018-12-21T06:17:57.279Z,94.50
2018-12-21T06:20:25.719Z,94.60
2018-12-21T06:22:54.175Z,95.00
2018-12-21T06:25:22.627Z,95.20
2018-12-21T06:27:51.082Z,95.10
2018-12-21T06:30:19.467Z,95.30
2018-12-21T06:32:47.892Z,95.00
2018-12-21T06:35:16.287Z,95.20
2018-12-21T06:37:44.722Z,95.30
2018-12-21T06:40:13.148Z,95.90
2018-12-21T06:42:41.679Z,95.00
2018-12-21T06:45:10.086Z,95.90
2018-12-21T06:47:38.489Z,94.80
2018-12-21T06:50:07.471Z,94.20
2018-12-21T06:52:35.975Z,94.40
2018-12-21T06:55:05.044Z,94.20
2018-12-21T06:57:33.444Z,93.90
2018-12-21T07:00:01.865Z,94.00
2018-12-21T07:02:30.246Z,93.90
2018-12-21T07:04:58.686Z,94.10
2018-12-21T07:07:27.100Z,94.10
2018-12-21T07:09:55.520Z,94.50
2018-12-21T07:12:23.912Z,94.60
2018-12-21T07:14:52.336Z,94.70
2018-12-21T07:17:20.760Z,94.70
2018-12-21T07:19:49.153Z,94.80
2018-12-21T07:22:17.543Z,95.00
2018-12-21T07:24:45.960Z,95.00
2018-12-21T07:27:14.382Z,95.10
2018-12-21T07:29:42.779Z,95.30
2018-12-21T07:32:11.195Z,95.30
2018-12-21T07:34:39.616Z,95.30
2018-12-21T07:37:08.026Z,95.60
2018-12-21T07:39:36.470Z,95.70
2018-12-21T07:42:04.894Z,96.00
2018-12-21T07:44:33.321Z,95.90
2018-12-21T07:47:01.720Z,96.00
2018-12-21T07:49:30.126Z,95.90
2018-12-21T07:51:58.503Z,96.30
2018-12-21T07:54:26.945Z,96.40
2018-12-21T07:56:55.435Z,95.50
2018-12-21T07:59:23.830Z,95.50
2018-12-21T08:01:52.310Z,95.70
2018-12-21T08:04:20.688Z,95.40
2018-12-21T08:06:49.092Z,94.90
2018-12-21T08:09:17.500Z,94.80
2018-12-21T08:11:45.899Z,94.80
2018-12-21T08:14:14.362Z,94.70
2018-12-21T08:16:42.812Z,94.90
2018-12-21T08:19:11.304Z,94.50
2018-12-21T08:21:40.500Z,94.20
2018-12-21T08:24:08.993Z,94.30
2018-12-21T08:26:37.414Z,94.50
2018-12-21T08:29:05.842Z,94.60
2018-12-21T08:31:34.252Z,94.70
2018-12-21T08:34:02.682Z,95.00
2018-12-21T08:36:31.160Z,94.30
2018-12-21T08:38:59.558Z,94.50
2018-12-21T08:41:27.966Z,94.20
2018-12-21T08:43:56.364Z,93.70
2018-12-21T08:46:24.781Z,93.60
2018-12-21T08:48:53.185Z,93.40
2018-12-21T08:51:21.590Z,93.50
2018-12-21T08:53:52.664Z,93.60
2018-12-21T08:56:20.430Z,93.10
2018-12-21T08:58:48.923Z,92.10
2018-12-21T09:01:17.303Z,92.10
2018-12-21T09:03:45.711Z,91.70
2018-12-21T09:06:18.475Z,92.10
2018-12-21T09:08:44.555Z,91.30
2018-12-21T09:11:13.131Z,91.50
2018-12-21T09:13:41.557Z,91.90
2018-12-21T09:16:10.034Z,91.90
2018-12-21T09:18:38.406Z,91.80
2018-12-21T09:21:06.798Z,91.90
2018-12-21T09:23:35.207Z,91.30
2018-12-21T09:26:03.922Z,91.10
2018-12-21T09:28:32.372Z,91.80
2018-12-21T09:31:00.811Z,91.10
2018-12-21T09:33:29.290Z,90.30
2018-12-21T09:35:57.906Z,88.70
2018-12-21T09:38:26.367Z,90.10
2018-12-21T09:40:54.827Z,90.40
2018-12-21T09:43:23.306Z,89.50
2018-12-21T09:45:51.699Z,84.70
2018-12-21T09:48:20.096Z,84.30
2018-12-21T09:50:48.528Z,82.60
2018-12-21T09:53:17.076Z,79.30
2018-12-21T09:55:45.480Z,80.10
2018-12-21T09:58:13.927Z,77.90
2018-12-21T10:00:42.473Z,80.10
2018-12-21T10:03:10.888Z,79.80
2018-12-21T10:05:39.300Z,78.20
2018-12-21T10:08:07.708Z,75.50
2018-12-21T10:10:36.345Z,79.50
2018-12-21T10:13:05.074Z,81.40
2018-12-21T10:15:33.491Z,77.90
2018-12-21T10:18:01.906Z,77.40
2018-12-21T10:20:30.319Z,79.30
2018-12-21T10:22:58.868Z,78.50
2018-12-21T10:25:27.323Z,78.30
2018-12-21T10:27:55.907Z,77.40
2018-12-21T10:30:24.566Z,76.80
2018-12-21T10:32:53.001Z,78.00
2018-12-21T10:35:21.409Z,78.10
2018-12-21T10:37:49.863Z,79.70
2018-12-21T10:40:18.409Z,80.60
2018-12-21T10:42:46.901Z,81.40
2018-12-21T10:45:15.378Z,80.50
2018-12-21T10:47:43.922Z,80.70
2018-12-21T10:50:12.748Z,81.50
2018-12-21T10:52:41.290Z,80.90
2018-12-21T10:55:09.743Z,80.10
2018-12-21T10:57:38.192Z,81.10
2018-12-21T11:00:09.340Z,81.50
2018-12-21T11:02:37.773Z,81.30
2018-12-21T11:05:07.043Z,79.80
2018-12-21T11:07:35.453Z,80.80
2018-12-21T11:10:05.379Z,80.60
2018-12-21T11:12:33.775Z,81.90
2018-12-21T11:15:02.171Z,80.60
2018-12-21T11:17:30.700Z,82.80
2018-12-21T11:19:59.162Z,81.90
2018-12-21T11:22:27.575Z,84.50
2018-12-21T11:24:56.007Z,86.00
2018-12-21T11:27:24.542Z,84.90
2018-12-21T11:29:52.971Z,84.50
2018-12-21T11:32:21.522Z,86.50
2018-12-21T11:34:50.052Z,87.70
2018-12-21T11:37:18.469Z,85.80
2018-12-21T11:39:46.925Z,86.20
2018-12-21T11:42:15.360Z,87.10
2018-12-21T11:44:43.831Z,86.80
2018-12-21T11:47:12.231Z,90.10
2018-12-21T11:49:40.632Z,89.20
2018-12-21T11:52:09.069Z,90.00
2018-12-21T11:54:44.153Z,90.80
2018-12-21T11:57:07.971Z,92.10
2018-12-21T11:59:44.696Z,93.10
2018-12-21T12:02:06.989Z,93.20
2018-12-21T12:04:35.392Z,93.70
2018-12-21T12:07:03.835Z,94.00
2018-12-21T12:09:32.223Z,94.40
2018-12-21T12:12:00.663Z,95.60
2018-12-21T12:14:29.092Z,96.00
2018-12-21T12:16:58.737Z,97.10
2018-12-21T12:19:27.417Z,96.80
2018-12-21T12:21:55.815Z,97.00
2018-12-21T12:24:24.376Z,96.30
2018-12-21T12:26:52.955Z,96.50
2018-12-21T12:29:21.367Z,96.10
2018-12-21T12:31:49.793Z,94.90
2018-12-21T12:34:18.240Z,95.10
2018-12-21T12:36:46.658Z,94.80
2018-12-21T12:39:15.470Z,95.40
2018-12-21T12:41:43.901Z,95.90
2018-12-21T12:44:12.424Z,96.30
2018-12-21T12:46:40.892Z,96.60
2018-12-21T12:49:09.362Z,95.80
2018-12-21T12:51:37.949Z,96.00
2018-12-21T12:54:06.496Z,96.30
2018-12-21T12:56:34.920Z,96.60
2018-12-21T12:59:03.348Z,96.80
2018-12-21T13:01:31.935Z,96.60
2018-12-21T13:04:00.346Z,96.30
2018-12-21T13:06:28.912Z,96.00
2018-12-21T13:08:57.309Z,96.00
2018-12-21T13:11:25.775Z,96.30
2018-12-21T13:13:55.142Z,96.70
2018-12-21T13:16:23.648Z,97.40
2018-12-21T13:18:52.204Z,97.30
2018-12-21T13:21:20.688Z,97.00
2018-12-21T13:23:49.140Z,97.70
2018-12-21T13:26:17.650Z,97.20
2018-12-21T13:28:46.115Z,97.40
2018-12-21T13:31:14.610Z,97.80
2018-12-21T13:33:43.032Z,97.20
2018-12-21T13:36:11.576Z,98.00
2018-12-21T13:38:40.319Z,97.90
2018-12-21T13:41:08.849Z,98.40
2018-12-21T13:43:38.229Z,98.70
2018-12-21T13:46:06.890Z,98.30
2018-12-21T13:48:35.455Z,98.70
2018-12-21T13:51:03.899Z,98.90
2018-12-21T13:53:32.411Z,98.50
2018-12-21T13:56:00.840Z,98.20
2018-12-21T13:58:29.335Z,98.50
2018-12-21T14:00:57.806Z,98.40
2018-12-21T14:03:26.265Z,97.20
2018-12-21T14:05:54.738Z,97.10
2018-12-21T14:08:23.205Z,97.10
2018-12-21T14:10:51.655Z,97.50
2018-12-21T14:13:20.110Z,97.20
2018-12-21T14:15:48.579Z,97.90
2018-12-21T14:18:17.000Z,99.50
2018-12-21T14:20:45.548Z,99.90
2018-12-21T14:23:14.019Z,99.90
2018-12-21T14:25:43.497Z,99.90
2018-12-21T14:28:11.931Z,99.90
2018-12-21T14:30:40.392Z,99.60
2018-12-21T14:33:08.871Z,99.70
2018-12-21T14:35:37.315Z,99.50
2018-12-21T14:38:05.877Z,99.90
2018-12-21T14:40:34.488Z,99.90
2018-12-21T14:43:02.961Z,99.10
2018-12-21T14:45:31.825Z,99.70
2018-12-21T14:48:00.287Z,99.50
2018-12-21T14:50:28.850Z,99.70
2018-12-21T14:52:57.296Z,99.70
2018-12-21T14:55:25.729Z,99.90
2018-12-21T14:57:54.234Z,99.90
2018-12-21T15:00:22.654Z,99.90
2018-12-21T15:02:51.109Z,99.90
2018-12-21T15:05:19.593Z,99.90
2018-12-21T15:07:48.120Z,99.90
2018-12-21T15:10:16.556Z,99.90
2018-12-21T15:12:45.030Z,99.90
2018-12-21T15:15:13.486Z,99.90
2018-12-21T15:17:42.595Z,99.90
2018-12-21T15:20:11.554Z,99.90
2018-12-21T15:22:40.044Z,99.90
2018-12-21T15:25:08.523Z,99.90
2018-12-21T15:27:37.072Z,99.90
2018-12-21T15:30:08.227Z,99.90
2018-12-21T15:32:36.680Z,99.90
2018-12-21T15:35:05.256Z,99.90
2018-12-21T15:37:33.808Z,99.90
2018-12-21T15:40:02.276Z,99.90
2018-12-21T15:42:30.897Z,99.90
2018-12-21T15:44:59.412Z,99.90
2018-12-21T15:47:27.938Z,99.90
2018-12-21T15:49:56.416Z,99.90
2018-12-21T15:52:25.416Z,99.90
2018-12-21T15:54:53.902Z,99.90
2018-12-21T15:57:22.366Z,99.90
2018-12-21T15:59:50.858Z,99.90
2018-12-21T16:02:19.473Z,99.90
2018-12-21T16:04:48.130Z,99.90
2018-12-21T16:07:16.592Z,99.90
2018-12-21T16:09:45.358Z,99.90
2018-12-21T16:12:13.937Z,99.90
2018-12-21T16:14:42.415Z,99.90
2018-12-21T16:17:10.899Z,99.90
2018-12-21T16:19:39.388Z,99.90
2018-12-21T16:22:07.817Z,99.90
2018-12-21T16:24:36.340Z,99.90
2018-12-21T16:27:04.835Z,99.90
2018-12-21T16:29:33.591Z,99.90
2018-12-21T16:32:02.061Z,99.90
2018-12-21T16:34:30.683Z,99.90
2018-12-21T16:36:59.114Z,99.90
2018-12-21T16:39:27.549Z,99.90
2018-12-21T16:41:56.059Z,99.90
2018-12-21T16:44:24.494Z,99.90
2018-12-21T16:46:52.943Z,99.90
2018-12-21T16:49:21.436Z,99.90
2018-12-21T16:51:50.351Z,99.90
2018-12-21T16:54:18.769Z,99.90
2018-12-21T16:56:47.187Z,99.90
2018-12-21T16:59:15.737Z,99.90
2018-12-21T17:01:44.171Z,99.90
2018-12-21T17:04:12.594Z,99.90
2018-12-21T17:06:41.047Z,99.90
2018-12-21T17:09:09.912Z,99.90
2018-12-21T17:11:38.465Z,99.90
2018-12-21T17:14:07.190Z,99.90
2018-12-21T17:16:35.898Z,99.90
2018-12-21T17:19:11.212Z,99.90
2018-12-21T17:21:39.760Z,99.90
2018-12-21T17:24:08.248Z,99.90
2018-12-21T17:26:36.839Z,99.90
2018-12-21T17:29:05.314Z,99.90
2018-12-21T17:31:34.043Z,99.90
2018-12-21T17:34:02.514Z,99.90
2018-12-21T17:36:30.925Z,99.90
2018-12-21T17:38:59.536Z,99.90
2018-12-21T17:41:27.991Z,99.90
2018-12-21T17:43:56.450Z,99.90
2018-12-21T17:46:24.911Z,99.90
2018-12-21T17:48:53.367Z,99.90
2018-12-21T17:51:21.808Z,99.90
2018-12-21T17:53:50.324Z,99.90
2018-12-21T17:56:18.777Z,99.90
2018-12-21T17:58:47.268Z,99.90
2018-12-21T18:01:15.737Z,99.90
2018-12-21T18:04:47.548Z,99.90
2018-12-21T18:07:15.998Z,99.90
2018-12-21T18:09:44.584Z,99.90
2018-12-21T18:12:13.142Z,99.90
2018-12-21T18:14:41.616Z,99.90
2018-12-21T18:17:10.287Z,99.90
2018-12-21T18:19:38.732Z,99.90
2018-12-21T18:22:20.800Z,99.90
2018-12-21T18:24:53.629Z,99.90
2018-12-21T18:27:22.132Z,99.90
2018-12-21T18:29:51.090Z,99.90
2018-12-21T18:32:32.956Z,99.90
2018-12-21T18:35:05.314Z,99.90
2018-12-21T18:37:37.982Z,99.90
2018-12-21T18:40:08.422Z,99.90
2018-12-21T18:42:37.224Z,99.90
2018-12-21T18:45:06.112Z,99.90
2018-12-21T18:47:34.678Z,99.90
2018-12-21T18:50:03.268Z,99.90
2018-12-21T18:52:31.894Z,99.90
2018-12-21T18:55:00.486Z,99.90
2018-12-21T18:57:28.990Z,99.90
2018-12-21T18:59:57.479Z,99.90
2018-12-21T19:02:26.028Z,99.70
2018-12-21T19:05:01.152Z,99.60
2018-12-21T19:07:29.645Z,99.50
2018-12-21T19:09:58.259Z,99.20
2018-12-21T19:12:26.940Z,99.20
2018-12-21T19:14:56.447Z,99.00
2018-12-21T19:17:24.913Z,99.20
2018-12-21T19:19:53.763Z,99.00
2018-12-21T19:22:22.280Z,98.90
2018-12-21T19:24:50.968Z,98.90
2018-12-21T19:27:20.040Z,98.70
2018-12-21T19:29:49.382Z,98.60
2018-12-21T19:32:19.077Z,98.60
2018-12-21T19:34:48.624Z,98.60
2018-12-21T19:37:17.403Z,98.70
2018-12-21T19:39:46.135Z,98.40
2018-12-21T19:42:15.022Z,98.20
2018-12-21T19:44:43.943Z,98.00
2018-12-21T19:47:15.144Z,98.00
2018-12-21T19:49:43.907Z,98.00
2018-12-21T19:52:12.665Z,97.90
2018-12-21T19:54:41.354Z,97.60
2018-12-21T19:57:13.303Z,97.70
2018-12-21T19:59:41.832Z,97.10
2018-12-21T20:02:10.748Z,97.00
2018-12-21T20:04:40.689Z,96.70
2018-12-21T20:07:09.315Z,96.40
2018-12-21T20:09:38.203Z,96.20
2018-12-21T20:12:08.213Z,96.10
2018-12-21T20:14:36.734Z,96.20
2018-12-21T20:17:05.879Z,96.00
2018-12-21T20:19:34.391Z,95.70
2018-12-21T20:22:02.909Z,95.60
2018-12-21T20:24:34.983Z,95.40
2018-12-21T20:27:13.846Z,95.50
2018-12-21T20:29:41.818Z,95.70
2018-12-21T20:32:10.420Z,95.30
2018-12-21T20:34:39.069Z,95.00
2018-12-21T20:37:07.609Z,95.10
2018-12-21T20:42:10.109Z,94.90
2018-12-21T20:44:39.122Z,94.30
2018-12-21T20:47:08.134Z,94.40
2018-12-21T20:49:37.345Z,94.40
2018-12-21T20:52:06.256Z,94.40
2018-12-21T20:54:35.073Z,94.00
2018-12-21T20:59:42.226Z,93.90
2018-12-21T21:02:11.748Z,93.50
2018-12-21T21:04:40.298Z,93.20
2018-12-21T21:07:08.903Z,93.40
2018-12-21T21:09:37.555Z,93.00
2018-12-21T21:12:06.118Z,93.20
2018-12-21T21:14:34.650Z,93.30
2018-12-21T21:17:03.354Z,93.40
2018-12-21T21:19:35.706Z,93.30
2018-12-21T21:22:04.285Z,93.20
2018-12-21T21:24:32.818Z,93.30
2018-12-21T21:27:01.839Z,92.90
2018-12-21T21:29:30.435Z,92.90
2018-12-21T21:31:59.811Z,93.00
2018-12-21T21:34:29.736Z,92.80
2018-12-21T21:36:58.254Z,92.90
2018-12-21T21:39:27.123Z,93.30
2018-12-21T21:41:55.655Z,93.00
2018-12-21T21:44:24.161Z,93.00
2018-12-21T21:46:52.676Z,93.20
2018-12-21T21:49:21.162Z,93.10
2018-12-21T21:51:50.034Z,93.10
2018-12-21T21:54:18.518Z,93.00
2018-12-21T21:56:47.080Z,93.00
2018-12-21T21:59:15.596Z,92.80
2018-12-21T22:01:51.271Z,92.60
2018-12-21T22:04:19.795Z,92.60
2018-12-21T22:06:48.395Z,92.70
2018-12-21T22:09:16.876Z,92.80
2018-12-21T22:11:45.346Z,92.80
2018-12-21T22:14:13.850Z,92.90
2018-12-21T22:16:42.729Z,92.80
2018-12-21T22:19:11.252Z,92.80
2018-12-21T22:21:39.701Z,92.90
2018-12-21T22:24:08.247Z,92.90
2018-12-21T22:26:36.917Z,92.70
2018-12-21T22:29:05.399Z,92.50
2018-12-21T22:31:33.960Z,92.60
2018-12-21T22:34:02.448Z,92.70
2018-12-21T22:36:30.929Z,92.60
2018-12-21T22:38:59.427Z,93.10
2018-12-21T22:41:27.959Z,92.70
2018-12-21T22:43:57.370Z,92.80
2018-12-21T22:46:25.846Z,92.60
2018-12-21T22:48:54.340Z,92.30
2018-12-21T22:51:23.869Z,92.30
2018-12-21T22:53:52.376Z,92.30
2018-12-21T22:56:20.984Z,92.50
2018-12-21T22:58:50.000Z,92.40
2018-12-21T23:01:18.598Z,92.40
2018-12-21T23:03:47.038Z,92.30
2018-12-21T23:06:15.484Z,92.00
2018-12-21T23:08:44.122Z,92.00
2018-12-21T23:11:12.572Z,91.80
2018-12-21T23:13:40.997Z,92.20
2018-12-21T23:16:09.408Z,91.80
2018-12-21T23:18:37.809Z,92.00
2018-12-21T23:21:06.224Z,92.10
2018-12-21T23:23:34.632Z,91.90
2018-12-21T23:26:03.054Z,91.80
2018-12-21T23:28:31.440Z,91.90
2018-12-21T23:30:59.876Z,91.80
2018-12-21T23:33:28.394Z,91.70
2018-12-21T23:35:56.880Z,91.70
2018-12-21T23:38:25.272Z,92.20
2018-12-21T23:40:53.688Z,92.00
2018-12-21T23:43:22.180Z,92.00
2018-12-21T23:45:50.615Z,92.00
2018-12-21T23:48:19.032Z,92.10
2018-12-21T23:50:47.456Z,92.20
2018-12-21T23:53:15.975Z,92.10
2018-12-21T23:55:44.389Z,92.10
2018-12-21T23:58:13.781Z,92.60
